Time;durP1;ratioP1;P1;durP2;ratioP2;P2;SDS_P1;SDS_P2;PMS_P1;PMS_P2;Temp;Humidity;BMP_temperature;BMP_pressure;BME280_temperature;BME280_humidity;BME280_pressure;Samples;Min_cycle;Max_cycle;Signal;HPM_P1;HPM_P2
2023/01/09 00:00:07;;;;;;;;;;;;;;;;;;1053193;28;4011;-61
2023/01/09 00:00:42;;;;;;;;;;;;;;;;;;1051103;28;2937;-63
2023/01/09 00:01:29;;;;;;;;;;;;;;;;;;1052107;28;3972;-65
2023/01/09 00:01:59;;;;;;;;;;;;;;;;;;1052592;28;2882;-62
2023/01/09 00:02:29;;;;;;;;;;;;;;;;;;1052794;28;3888;-60
2023/01/09 00:03:00;;;;;;;;;;;;;;;;;;1053826;28;1658;-63
2023/01/09 00:03:30;;;;;;;;;;;;;;;;;;1052986;28;3984;-63
2023/01/09 00:04:00;;;;;;;;;;;;;;;;;;1052837;28;2946;-63
2023/01/09 00:04:31;;;;;;;;;;;;;;;;;;1055590;28;3975;-64
2023/01/09 00:05:01;;;;;;;;;;;;;;;;;;1052824;27;2887;-61
2023/01/09 00:05:31;;;;;;;;;;;;;;;;;;1054758;28;3726;-61
2023/01/09 00:06:01;;;;;;;;;;;;;;;;;;1054161;28;1981;-61
2023/01/09 00:06:32;;;;;;;;;;;;;;;;;;1051922;28;3923;-62
2023/01/09 00:07:03;;;;;;;;;;;;;;;;;;1052973;28;2402;-63
2023/01/09 00:07:33;;;;;;;;;;;;;;;;;;1051156;28;3809;-60
2023/01/09 00:08:03;;;;;;;;;;;;;;;;;;1055551;28;4060;-61
2023/01/09 00:08:34;;;;;;;;;;;;;;;;;;1053943;28;2091;-62
2023/01/09 00:09:04;;;;;;;;;;;;;;;;;;1050792;28;4521;-61
2023/01/09 00:09:34;;;;;;;;;;;;;;;;;;1055523;28;1983;-63
2023/01/09 00:10:05;;;;;;;;;;;;;;;;;;1051155;28;4053;-62
2023/01/09 00:10:35;;;;;;;;;;;;;;;;;;1050422;28;2551;-63
2023/01/09 00:11:06;;;;;;;;;;;;;;;;;;1047763;28;3967;-60
2023/01/09 00:11:36;;;;;;;;;;;;;;;;;;1046364;28;2481;-61
2023/01/09 00:12:06;;;;;;;;;;;;;;;;;;1049772;28;4174;-61
2023/01/09 00:12:37;;;;;;;;;;;;;;;;;;1052070;28;1902;-64
2023/01/09 00:13:09;;;;;;;;;;;;;;;;;;1051827;28;3774;-62
2023/01/09 00:13:40;;;;;;;;;;;;;;;;;;1055485;28;1897;-61
2023/01/09 00:14:10;;;;;;;;;;;;;;;;;;1052998;28;3935;-63
2023/01/09 00:14:40;;;;;;;;;;;;;;;;;;1051840;28;1902;-64
2023/01/09 00:15:10;;;;;;;;;;;;;;;;;;1050771;28;3918;-63
2023/01/09 00:15:41;;;;;;;;;;;;;;;;;;1052789;27;2473;-61
2023/01/09 00:16:11;;;;;;;;;;;;;;;;;;1052213;28;4062;-62
2023/01/09 00:16:42;;;;;;;;;;;;;;;;;;1053833;28;2333;-63
2023/01/09 00:17:12;;;;;;;;;;;;;;;;;;1053218;28;4228;-64
2023/01/09 00:17:42;;;;;;;;;;;;;;;;;;1055246;28;2695;-63
2023/01/09 00:18:13;;;;;;;;;;;;;;;;;;1055048;28;3759;-64
2023/01/09 00:18:43;;;;;;;;;;;;;;;;;;1052373;28;2251;-62
2023/01/09 00:19:13;;;;;;;;;;;;;;;;;;1051852;28;4113;-63
2023/01/09 00:19:43;;;;;;;;;;;;;;;;;;1053433;28;2708;-63
2023/01/09 00:20:14;;;;;;;;;;;;;;;;;;1054767;28;4118;-64
2023/01/09 00:20:44;;;;;;;;;;;;;;;;;;1053464;28;2217;-64
2023/01/09 00:21:14;;;;;;;;;;;;;;;;;;1052397;28;4083;-64
2023/01/09 00:21:45;;;;;;;;;;;;;;;;;;1051812;28;2674;-62
2023/01/09 00:22:15;;;;;;;;;;;;;;;;;;1053439;28;3921;-60
2023/01/09 00:22:45;;;;;;;;;;;;;;;;;;1055163;28;2192;-60
2023/01/09 00:23:16;;;;;;;;;;;;;;;;;;1055030;28;3876;-60
2023/01/09 00:23:46;;;;;;;;;;;;;;;;;;1055548;28;2427;-60
2023/01/09 00:24:16;;;;;;;;;;;;;;;;;;1051436;28;4034;-59
2023/01/09 00:24:46;;;;;;;;;;;;;;;;;;1053655;28;1617;-63
2023/01/09 00:25:17;;;;;;;;;;;;;;;;;;1052527;28;4365;-61
2023/01/09 00:25:47;;;;;;;;;;;;;;;;;;1048387;28;1803;-62
2023/01/09 00:26:18;;;;;;;;;;;;;;;;;;1049505;28;3890;-61
2023/01/09 00:26:48;;;;;;;;;;;;;;;;;;1050089;28;2466;-63
2023/01/09 00:27:18;;;;;;;;;;;;;;;;;;1048146;28;4304;-63
2023/01/09 00:27:49;;;;;;;;;;;;;;;;;;1051686;28;1565;-60
2023/01/09 00:28:19;;;;;;;;;;;;;;;;;;1052797;28;3834;-63
2023/01/09 00:28:50;;;;;;;;;;;;;;;;;;1051557;28;1841;-62
2023/01/09 00:29:20;;;;;;;;;;;;;;;;;;1051845;28;3772;-61
2023/01/09 00:29:51;;;;;;;;;;;;;;;;;;1053873;28;2171;-61
2023/01/09 00:30:21;;;;;;;;;;;;;;;;;;1051391;28;4056;-64
2023/01/09 00:30:55;;;;;;;;;;;;;;;;;;1053423;27;2091;-61
2023/01/09 00:31:25;;;;;;;;;;;;;;;;;;1052389;28;3741;-62
2023/01/09 00:31:56;;;;;;;;;;;;;;;;;;1052336;28;2738;-62
2023/01/09 00:32:26;;;;;;;;;;;;;;;;;;1054524;28;4375;-63
2023/01/09 00:32:57;;;;;;;;;;;;;;;;;;1055415;28;2143;-64
2023/01/09 00:33:28;;;;;;;;;;;;;;;;;;1053285;28;3746;-62
2023/01/09 00:34:02;;;;;;;;;;;;;;;;;;1051782;28;2719;-62
2023/01/09 00:34:34;;;;;;;;;;;;;;;;;;1052891;28;3751;-62
2023/01/09 00:35:06;;;;;;;;;;;;;;;;;;1055176;28;3955;-63
2023/01/09 00:35:36;;;;;;;;;;;;;;;;;;1055067;28;1841;-63
2023/01/09 00:36:06;;;;;;;;;;;;;;;;;;1053486;27;3832;-63
2023/01/09 00:36:37;;;;;;;;;;;;;;;;;;1054696;28;2118;-61
2023/01/09 00:37:10;;;;;;;;;;;;;;;;;;1052743;28;3870;-62
2023/01/09 00:37:41;;;;;;;;;;;;;;;;;;1053684;28;1896;-61
2023/01/09 00:38:11;;;;;;;;;;;;;;;;;;1054769;28;3930;-64
2023/01/09 00:38:41;;;;;;;;;;;;;;;;;;1054047;28;2014;-61
2023/01/09 00:39:18;;;;;;;;;;;;;;;;;;1050729;28;3886;-64
2023/01/09 00:39:55;;;;;;;;;;;;;;;;;;1052162;28;2270;-64
2023/01/09 00:40:32;;;;;;;;;;;;;;;;;;1050533;28;4290;-62
2023/01/09 00:41:06;;;;;;;;;;;;;;;;;;1052766;28;4560;-62
2023/01/09 00:41:39;;;;;;;;;;;;;;;;;;1051376;28;2012;-64
2023/01/09 00:42:11;;;;;;;;;;;;;;;;;;1052323;27;3788;-61
2023/01/09 00:42:44;;;;;;;;;;;;;;;;;;1052528;28;2347;-60
2023/01/09 00:43:15;;;;;;;;;;;;;;;;;;1053183;28;3947;-63
2023/01/09 00:43:57;;;;;;;;;;;;;;;;;;1055195;28;1840;-64
2023/01/09 00:44:29;;;;;;;;;;;;;;;;;;1052059;28;4018;-61
2023/01/09 00:45:08;;;;;;;;;;;;;;;;;;1050753;27;4385;-62
2023/01/09 00:45:39;;;;;;;;;;;;;;;;;;1054793;28;1967;-62
2023/01/09 00:46:09;;;;;;;;;;;;;;;;;;1052145;27;3966;-61
2023/01/09 00:46:42;;;;;;;;;;;;;;;;;;1051793;28;2165;-64
2023/01/09 00:47:18;;;;;;;;;;;;;;;;;;1052491;28;4071;-64
2023/01/09 00:47:50;;;;;;;;;;;;;;;;;;1054561;28;2051;-63
2023/01/09 00:48:25;;;;;;;;;;;;;;;;;;1049760;28;3769;-63
2023/01/09 00:48:56;;;;;;;;;;;;;;;;;;1050062;28;2898;-63
2023/01/09 00:49:29;;;;;;;;;;;;;;;;;;1049522;28;4240;-63
2023/01/09 00:50:02;;;;;;;;;;;;;;;;;;1052966;28;1682;-61
2023/01/09 00:50:33;;;;;;;;;;;;;;;;;;1051093;28;4451;-62
2023/01/09 00:51:04;;;;;;;;;;;;;;;;;;1051911;28;3868;-62
2023/01/09 00:51:34;;;;;;;;;;;;;;;;;;1051914;28;2668;-64
2023/01/09 00:52:06;;;;;;;;;;;;;;;;;;1052371;28;4070;-63
2023/01/09 00:52:36;;;;;;;;;;;;;;;;;;1053967;28;2824;-63
2023/01/09 00:53:09;;;;;;;;;;;;;;;;;;1053540;28;4198;-63
2023/01/09 00:53:40;;;;;;;;;;;;;;;;;;1052784;28;2876;-60
2023/01/09 00:54:12;;;;;;;;;;;;;;;;;;1051344;28;3903;-61
2023/01/09 00:54:43;;;;;;;;;;;;;;;;;;1051832;28;2903;-61
2023/01/09 00:55:14;;;;;;;;;;;;;;;;;;1052590;28;4042;-63
2023/01/09 00:55:44;;;;;;;;;;;;;;;;;;1048813;28;2927;-63
2023/01/09 00:56:17;;;;;;;;;;;;;;;;;;1046821;28;4102;-63
2023/01/09 00:56:47;;;;;;;;;;;;;;;;;;1048542;28;2055;-64
2023/01/09 00:57:17;;;;;;;;;;;;;;;;;;1049260;28;3933;-62
2023/01/09 00:57:48;;;;;;;;;;;;;;;;;;1051565;28;3080;-60
2023/01/09 00:58:18;;;;;;;;;;;;;;;;;;1053193;28;3898;-64
2023/01/09 00:58:50;;;;;;;;;;;;;;;;;;1052183;28;2959;-61
2023/01/09 00:59:20;;;;;;;;;;;;;;;;;;1051873;28;4378;-64
2023/01/09 00:59:51;;;;;;;;;;;;;;;;;;1053533;28;2737;-61
2023/01/09 01:00:21;;;;;;;;;;;;;;;;;;1050981;28;3780;-62
2023/01/09 01:00:51;;;;;;;;;;;;;;;;;;1053326;28;3207;-64
2023/01/09 01:01:22;;;;;;;;;;;;;;;;;;1052111;28;3991;-62
2023/01/09 01:01:52;;;;;;;;;;;;;;;;;;1052094;28;3288;-64
2023/01/09 01:02:22;;;;;;;;;;;;;;;;;;1051452;27;4999;-62
2023/01/09 01:02:52;;;;;;;;;;;;;;;;;;1053209;28;2766;-61
2023/01/09 01:03:23;;;;;;;;;;;;;;;;;;1052251;28;4232;-60
2023/01/09 01:03:53;;;;;;;;;;;;;;;;;;1056012;28;1627;-64
2023/01/09 01:07:39;;;;;;;;;;;;;;;;;;1052521;28;3973;-64
2023/01/09 01:08:11;;;;;;;;;;;;;;;;;;1051129;28;4438;-63
2023/01/09 01:08:41;;;;;;;;;;;;;;;;;;1052529;28;2862;-63
2023/01/09 01:09:11;;;;;;;;;;;;;;;;;;1052732;28;4444;-63
2023/01/09 01:09:41;;;;;;;;;;;;;;;;;;1052258;28;2738;-63
2023/01/09 01:10:15;;;;;;;;;;;;;;;;;;1050481;28;4398;-62
2023/01/09 01:10:46;;;;;;;;;;;;;;;;;;1053272;28;2965;-63
2023/01/09 01:11:16;;;;;;;;;;;;;;;;;;1051008;28;4120;-60
2023/01/09 01:11:46;;;;;;;;;;;;;;;;;;1054332;28;2260;-62
2023/01/09 01:12:16;;;;;;;;;;;;;;;;;;1051745;28;3776;-64
2023/01/09 01:12:47;;;;;;;;;;;;;;;;;;1052398;28;1918;-63
2023/01/09 01:13:18;;;;;;;;;;;;;;;;;;1052232;28;3755;-64
2023/01/09 01:13:48;;;;;;;;;;;;;;;;;;1052859;28;2635;-61
2023/01/09 01:14:18;;;;;;;;;;;;;;;;;;1054682;28;4258;-64
2023/01/09 01:14:48;;;;;;;;;;;;;;;;;;1055264;28;1680;-62
2023/01/09 01:15:19;;;;;;;;;;;;;;;;;;1052001;28;3851;-61
2023/01/09 01:15:49;;;;;;;;;;;;;;;;;;1051673;27;2402;-64
2023/01/09 01:16:19;;;;;;;;;;;;;;;;;;1053444;28;3803;-63
2023/01/09 01:16:50;;;;;;;;;;;;;;;;;;1053263;28;2739;-61
2023/01/09 01:17:20;;;;;;;;;;;;;;;;;;1050936;28;3936;-61
2023/01/09 01:17:50;;;;;;;;;;;;;;;;;;1049234;28;2067;-60
2023/01/09 01:18:21;;;;;;;;;;;;;;;;;;1046670;28;3907;-60
2023/01/09 01:18:51;;;;;;;;;;;;;;;;;;1046869;28;1739;-62
2023/01/09 01:19:21;;;;;;;;;;;;;;;;;;1046850;28;3903;-63
2023/01/09 01:19:51;;;;;;;;;;;;;;;;;;1053700;28;2031;-63
2023/01/09 01:20:22;;;;;;;;;;;;;;;;;;1050784;28;4237;-61
2023/01/09 01:20:52;;;;;;;;;;;;;;;;;;1051944;28;2110;-62
2023/01/09 01:21:22;;;;;;;;;;;;;;;;;;1050802;28;3944;-61
2023/01/09 01:21:53;;;;;;;;;;;;;;;;;;1047661;28;2497;-59
2023/01/09 01:22:24;;;;;;;;;;;;;;;;;;1046448;28;4092;-62
2023/01/09 01:22:54;;;;;;;;;;;;;;;;;;1049155;28;2296;-63
2023/01/09 01:23:24;;;;;;;;;;;;;;;;;;1046391;28;3756;-61
2023/01/09 01:23:55;;;;;;;;;;;;;;;;;;1052348;28;2725;-62
2023/01/09 01:24:25;;;;;;;;;;;;;;;;;;1051136;28;4313;-64
2023/01/09 01:24:55;;;;;;;;;;;;;;;;;;1049168;28;1901;-64
2023/01/09 01:25:26;;;;;;;;;;;;;;;;;;1049639;28;3850;-62
2023/01/09 01:25:56;;;;;;;;;;;;;;;;;;1050536;28;2631;-63
2023/01/09 01:26:26;;;;;;;;;;;;;;;;;;1050944;28;3932;-64
2023/01/09 01:26:56;;;;;;;;;;;;;;;;;;1054493;28;2048;-61
2023/01/09 01:27:27;;;;;;;;;;;;;;;;;;1052627;28;4318;-61
2023/01/09 01:27:58;;;;;;;;;;;;;;;;;;1051126;28;2027;-60
2023/01/09 01:28:28;;;;;;;;;;;;;;;;;;1052904;28;4007;-60
2023/01/09 01:28:58;;;;;;;;;;;;;;;;;;1051773;27;2590;-63
2023/01/09 01:29:28;;;;;;;;;;;;;;;;;;1054445;28;3920;-63
2023/01/09 01:29:58;;;;;;;;;;;;;;;;;;1055034;28;2021;-61
2023/01/09 01:30:30;;;;;;;;;;;;;;;;;;1052412;28;3763;-63
2023/01/09 01:31:00;;;;;;;;;;;;;;;;;;1046822;28;2768;-62
2023/01/09 01:31:30;;;;;;;;;;;;;;;;;;1046694;28;3986;-60
2023/01/09 01:32:01;;;;;;;;;;;;;;;;;;1046630;28;1706;-63
2023/01/09 01:32:31;;;;;;;;;;;;;;;;;;1046227;28;3804;-62
2023/01/09 01:33:01;;;;;;;;;;;;;;;;;;1051849;27;2523;-61
2023/01/09 01:33:32;;;;;;;;;;;;;;;;;;1051126;28;3738;-60
2023/01/09 01:34:02;;;;;;;;;;;;;;;;;;1051368;28;2811;-64
2023/01/09 01:34:32;;;;;;;;;;;;;;;;;;1052035;28;4125;-62
2023/01/09 01:35:03;;;;;;;;;;;;;;;;;;1049665;28;4111;-63
2023/01/09 01:35:33;;;;;;;;;;;;;;;;;;1046100;28;2074;-63
2023/01/09 01:36:05;;;;;;;;;;;;;;;;;;1045889;28;4059;-61
2023/01/09 01:36:35;;;;;;;;;;;;;;;;;;1046202;28;2009;-64
2023/01/09 01:37:05;;;;;;;;;;;;;;;;;;1049535;28;4223;-61
2023/01/09 01:37:36;;;;;;;;;;;;;;;;;;1052108;28;2050;-63
2023/01/09 01:38:06;;;;;;;;;;;;;;;;;;1052909;28;3970;-64
2023/01/09 01:38:37;;;;;;;;;;;;;;;;;;1054473;28;1783;-63
2023/01/09 01:39:07;;;;;;;;;;;;;;;;;;1053312;28;4134;-60
2023/01/09 01:39:44;;;;;;;;;;;;;;;;;;1051367;28;2193;-61
2023/01/09 01:40:28;;;;;;;;;;;;;;;;;;1051806;28;4007;-63
2023/01/09 01:40:59;;;;;;;;;;;;;;;;;;1054345;28;2145;-62
2023/01/09 01:41:29;;;;;;;;;;;;;;;;;;1053163;28;3893;-62
2023/01/09 01:41:59;;;;;;;;;;;;;;;;;;1051948;28;2078;-62
2023/01/09 01:42:29;;;;;;;;;;;;;;;;;;1045844;28;3935;-60
2023/01/09 01:43:00;;;;;;;;;;;;;;;;;;1048565;28;2487;-60
2023/01/09 01:43:49;;;;;;;;;;;;;;;;;;1048656;28;4344;-63
2023/01/09 01:44:51;;;;;;;;;;;;;;;;;;1051340;28;3939;-61
2023/01/09 01:45:23;;;;;;;;;;;;;;;;;;1031538;28;4058;-64
2023/01/09 01:45:54;;;;;;;;;;;;;;;;;;1029870;28;2877;-62
2023/01/09 01:46:24;;;;;;;;;;;;;;;;;;1042819;28;3784;-64
2023/01/09 01:46:55;;;;;;;;;;;;;;;;;;1054392;28;1763;-64
2023/01/09 01:47:46;;;;;;;;;;;;;;;;;;1052041;28;3975;-62
2023/01/09 01:48:27;;;;;;;;;;;;;;;;;;1054455;28;4225;-64
2023/01/09 01:49:01;;;;;;;;;;;;;;;;;;1055200;28;2028;-63
2023/01/09 01:49:31;;;;;;;;;;;;;;;;;;1053381;27;3785;-61
2023/01/09 01:50:03;;;;;;;;;;;;;;;;;;1051144;28;2401;-63
2023/01/09 01:50:54;;;;;;;;;;;;;;;;;;1055538;28;3952;-61
2023/01/09 01:51:26;;;;;;;;;;;;;;;;;;1033164;28;4027;-63
2023/01/09 01:51:56;;;;;;;;;;;;;;;;;;1051819;28;1757;-61
2023/01/09 01:52:26;;;;;;;;;;;;;;;;;;1053599;28;3926;-64
2023/01/09 01:53:17;;;;;;;;;;;;;;;;;;1054959;28;2380;-61
2023/01/09 01:53:49;;;;;;;;;;;;;;;;;;1053225;28;3977;-60
2023/01/09 01:54:23;;;;;;;;;;;;;;;;;;1055030;28;4217;-60
2023/01/09 01:54:53;;;;;;;;;;;;;;;;;;1052835;28;2902;-62
2023/01/09 01:55:24;;;;;;;;;;;;;;;;;;1051688;28;3786;-60
2023/01/09 01:56:04;;;;;;;;;;;;;;;;;;1054446;28;2549;-62
2023/01/09 01:56:36;;;;;;;;;;;;;;;;;;1054993;28;3991;-61
2023/01/09 01:57:06;;;;;;;;;;;;;;;;;;1051787;28;3940;-64
2023/01/09 01:57:39;;;;;;;;;;;;;;;;;;1052814;28;1700;-62
2023/01/09 01:58:12;;;;;;;;;;;;;;;;;;1053362;28;4211;-63
2023/01/09 01:58:49;;;;;;;;;;;;;;;;;;1054609;28;1435;-60
2023/01/09 01:59:22;;;;;;;;;;;;;;;;;;1052189;28;3771;-60
2023/01/09 01:59:54;;;;;;;;;;;;;;;;;;1047047;28;2064;-64
2023/01/09 02:00:28;;;;;;;;;;;;;;;;;;1046415;28;4345;-64
2023/01/09 02:00:59;;;;;;;;;;;;;;;;;;1048575;28;1323;-61
2023/01/09 02:01:29;;;;;;;;;;;;;;;;;;1048129;28;3889;-63
2023/01/09 02:02:01;;;;;;;;;;;;;;;;;;1053832;28;2468;-60
2023/01/09 02:02:31;;;;;;;;;;;;;;;;;;1052722;28;4041;-63
2023/01/09 02:03:02;;;;;;;;;;;;;;;;;;1052770;28;2750;-63
2023/01/09 02:03:33;;;;;;;;;;;;;;;;;;1053215;28;3838;-63
2023/01/09 02:04:04;;;;;;;;;;;;;;;;;;1050524;28;4245;-62
2023/01/09 02:04:35;;;;;;;;;;;;;;;;;;1052850;28;1803;-61
2023/01/09 02:05:05;;;;;;;;;;;;;;;;;;1051443;28;4433;-61
2023/01/09 02:05:37;;;;;;;;;;;;;;;;;;1054055;28;2547;-62
2023/01/09 02:06:08;;;;;;;;;;;;;;;;;;1054752;28;3937;-62
2023/01/09 02:06:38;;;;;;;;;;;;;;;;;;1054513;28;2091;-62
2023/01/09 02:07:09;;;;;;;;;;;;;;;;;;1052249;28;3965;-61
2023/01/09 02:07:39;;;;;;;;;;;;;;;;;;1051517;28;2371;-61
2023/01/09 02:08:09;;;;;;;;;;;;;;;;;;1052528;28;3864;-60
2023/01/09 02:08:40;;;;;;;;;;;;;;;;;;1052172;28;2508;-63
2023/01/09 02:09:14;;;;;;;;;;;;;;;;;;1049157;28;3925;-64
2023/01/09 02:09:45;;;;;;;;;;;;;;;;;;1043369;28;2802;-60
2023/01/09 02:10:15;;;;;;;;;;;;;;;;;;1044469;28;4426;-63
2023/01/09 02:10:46;;;;;;;;;;;;;;;;;;1045907;28;2904;-61
2023/01/09 02:11:18;;;;;;;;;;;;;;;;;;1048226;28;3958;-64
2023/01/09 02:11:52;;;;;;;;;;;;;;;;;;1051101;28;2100;-63
2023/01/09 02:12:24;;;;;;;;;;;;;;;;;;1054517;28;4407;-64
2023/01/09 02:12:54;;;;;;;;;;;;;;;;;;1052941;28;1907;-63
2023/01/09 02:13:26;;;;;;;;;;;;;;;;;;1051836;28;4985;-64
2023/01/09 02:13:56;;;;;;;;;;;;;;;;;;1052865;28;3157;-64
2023/01/09 02:14:28;;;;;;;;;;;;;;;;;;1053964;28;4113;-64
2023/01/09 02:15:04;;;;;;;;;;;;;;;;;;1050331;28;2366;-64
2023/01/09 02:15:46;;;;;;;;;;;;;;;;;;1051782;28;5679;-61
2023/01/09 02:16:25;;;;;;;;;;;;;;;;;;1051725;28;4231;-63
2023/01/09 02:17:20;;;;;;;;;;;;;;;;;;1052515;28;2170;-61
2023/01/09 02:17:56;;;;;;;;;;;;;;;;;;1052172;28;3832;-60
2023/01/09 02:18:30;;;;;;;;;;;;;;;;;;1048879;28;4159;-62
2023/01/09 02:19:09;;;;;;;;;;;;;;;;;;1050487;28;1827;-65
2023/01/09 02:19:45;;;;;;;;;;;;;;;;;;1049209;28;3855;-63
2023/01/09 02:20:29;;;;;;;;;;;;;;;;;;1052867;28;4371;-64
2023/01/09 02:21:05;;;;;;;;;;;;;;;;;;1051603;28;2183;-64
2023/01/09 02:21:53;;;;;;;;;;;;;;;;;;1051568;28;3874;-62
2023/01/09 02:22:42;;;;;;;;;;;;;;;;;;1050986;28;4105;-61
2023/01/09 02:23:51;;;;;;;;;;;;;;;;;;1051835;28;4043;-62
2023/01/09 02:24:29;;;;;;;;;;;;;;;;;;1031577;28;4015;-62
2023/01/09 02:25:07;;;;;;;;;;;;;;;;;;1032701;28;2586;-64
2023/01/09 02:25:37;;;;;;;;;;;;;;;;;;1031436;28;4132;-63
2023/01/09 02:26:30;;;;;;;;;;;;;;;;;;1031208;28;4491;-62
2023/01/09 02:27:00;;;;;;;;;;;;;;;;;;1021082;28;1998;-62
2023/01/09 02:27:31;;;;;;;;;;;;;;;;;;1032756;28;3742;-64
2023/01/09 02:28:19;;;;;;;;;;;;;;;;;;1032138;28;2497;-61
2023/01/09 02:28:55;;;;;;;;;;;;;;;;;;1031813;28;3827;-60
2023/01/09 02:29:48;;;;;;;;;;;;;;;;;;1032197;28;4365;-63
2023/01/09 02:30:37;;;;;;;;;;;;;;;;;;1032433;28;3996;-65
2023/01/09 02:31:07;;;;;;;;;;;;;;;;;;1048133;28;4456;-64
2023/01/09 02:31:49;;;;;;;;;;;;;;;;;;1047549;28;2795;-60
2023/01/09 02:32:22;;;;;;;;;;;;;;;;;;1047326;28;3861;-61
2023/01/09 02:32:55;;;;;;;;;;;;;;;;;;1052314;28;2079;-61
2023/01/09 02:33:29;;;;;;;;;;;;;;;;;;1052556;28;3995;-63
2023/01/09 02:34:03;;;;;;;;;;;;;;;;;;1051218;28;2687;-64
2023/01/09 02:34:33;;;;;;;;;;;;;;;;;;1049302;28;3829;-61
2023/01/09 02:35:22;;;;;;;;;;;;;;;;;;1049043;28;3942;-61
2023/01/09 02:36:19;;;;;;;;;;;;;;;;;;1051682;28;2587;-64
2023/01/09 02:37:03;;;;;;;;;;;;;;;;;;1037262;28;3669;-64
2023/01/09 02:37:52;;;;;;;;;;;;;;;;;;1046408;28;3791;-62
2023/01/09 02:38:42;;;;;;;;;;;;;;;;;;1053876;28;3723;-62
2023/01/09 02:39:15;;;;;;;;;;;;;;;;;;1053947;27;4676;-64
2023/01/09 02:40:02;;;;;;;;;;;;;;;;;;1051335;28;2482;-64
2023/01/09 02:40:32;;;;;;;;;;;;;;;;;;1052804;27;3715;-62
2023/01/09 02:41:13;;;;;;;;;;;;;;;;;;1055201;28;2729;-64
2023/01/09 02:41:53;;;;;;;;;;;;;;;;;;1049439;28;4192;-60
2023/01/09 02:42:25;;;;;;;;;;;;;;;;;;1049497;28;4945;-62
2023/01/09 02:42:57;;;;;;;;;;;;;;;;;;1050130;28;2203;-61
2023/01/09 02:43:28;;;;;;;;;;;;;;;;;;1049291;28;3782;-62
2023/01/09 02:44:10;;;;;;;;;;;;;;;;;;1053791;28;3098;-65
2023/01/09 02:44:42;;;;;;;;;;;;;;;;;;1052073;28;3920;-64
2023/01/09 02:45:13;;;;;;;;;;;;;;;;;;1051996;28;3964;-64
2023/01/09 02:45:43;;;;;;;;;;;;;;;;;;1056057;28;2481;-59
2023/01/09 02:46:20;;;;;;;;;;;;;;;;;;1052418;28;3842;-63
2023/01/09 02:47:01;;;;;;;;;;;;;;;;;;1055236;28;2762;-65
2023/01/09 02:47:35;;;;;;;;;;;;;;;;;;1050653;28;3904;-63
2023/01/09 02:48:08;;;;;;;;;;;;;;;;;;1050204;28;4069;-63
2023/01/09 02:48:39;;;;;;;;;;;;;;;;;;1050860;28;2916;-60
2023/01/09 02:49:10;;;;;;;;;;;;;;;;;;1050818;28;4080;-62
2023/01/09 02:49:47;;;;;;;;;;;;;;;;;;1054422;28;2497;-64
2023/01/09 02:50:31;;;;;;;;;;;;;;;;;;1052636;28;3968;-62
2023/01/09 02:51:05;;;;;;;;;;;;;;;;;;1054770;28;3017;-62
2023/01/09 02:51:44;;;;;;;;;;;;;;;;;;1053038;28;3950;-60
2023/01/09 02:52:37;;;;;;;;;;;;;;;;;;1051741;28;3868;-62
2023/01/09 02:53:26;;;;;;;;;;;;;;;;;;1029218;28;3927;-62
2023/01/09 02:54:15;;;;;;;;;;;;;;;;;;1038585;28;2859;-61
2023/01/09 02:54:52;;;;;;;;;;;;;;;;;;1052782;28;4028;-61
2023/01/09 02:55:41;;;;;;;;;;;;;;;;;;1053299;28;4374;-63
2023/01/09 02:56:14;;;;;;;;;;;;;;;;;;1053072;28;4262;-61
2023/01/09 02:57:04;;;;;;;;;;;;;;;;;;1051061;28;2168;-63
2023/01/09 02:57:41;;;;;;;;;;;;;;;;;;1053077;28;5133;-63
2023/01/09 02:58:20;;;;;;;;;;;;;;;;;;1053556;28;3865;-62
2023/01/09 02:59:01;;;;;;;;;;;;;;;;;;1053043;28;2969;-63
2023/01/09 02:59:49;;;;;;;;;;;;;;;;;;1053251;28;4060;-62
2023/01/09 03:00:45;;;;;;;;;;;;;;;;;;1052626;28;4344;-62
2023/01/09 03:01:26;;;;;;;;;;;;;;;;;;1048662;28;4255;-63
2023/01/09 03:02:05;;;;;;;;;;;;;;;;;;1048572;28;2069;-65
2023/01/09 03:02:53;;;;;;;;;;;;;;;;;;1049677;28;3882;-61
2023/01/09 03:03:34;;;;;;;;;;;;;;;;;;1051321;28;3935;-60
2023/01/09 03:04:05;;;;;;;;;;;;;;;;;;1051390;27;4087;-62
2023/01/09 03:04:54;;;;;;;;;;;;;;;;;;1052216;28;2503;-63
2023/01/09 03:05:28;;;;;;;;;;;;;;;;;;1053574;28;4984;-65
2023/01/09 03:06:05;;;;;;;;;;;;;;;;;;1052171;28;2733;-61
2023/01/09 03:06:46;;;;;;;;;;;;;;;;;;1054853;28;3881;-61
2023/01/09 03:07:34;;;;;;;;;;;;;;;;;;1055436;28;4422;-64
2023/01/09 03:08:07;;;;;;;;;;;;;;;;;;1052715;28;4123;-63
2023/01/09 03:08:42;;;;;;;;;;;;;;;;;;1051802;28;1830;-64
2023/01/09 03:09:14;;;;;;;;;;;;;;;;;;1055063;28;3794;-63
2023/01/09 03:09:46;;;;;;;;;;;;;;;;;;1053570;28;2063;-63
2023/01/09 03:10:29;;;;;;;;;;;;;;;;;;1055332;28;3920;-63
2023/01/09 03:11:06;;;;;;;;;;;;;;;;;;1055336;28;1877;-60
2023/01/09 03:11:40;;;;;;;;;;;;;;;;;;1053092;28;5589;-63
2023/01/09 03:12:15;;;;;;;;;;;;;;;;;;1054956;28;4380;-62
2023/01/09 03:12:47;;;;;;;;;;;;;;;;;;1051870;28;1969;-63
2023/01/09 03:13:20;;;;;;;;;;;;;;;;;;1051846;28;4092;-62
2023/01/09 03:13:52;;;;;;;;;;;;;;;;;;1053530;28;1599;-61
2023/01/09 03:14:24;;;;;;;;;;;;;;;;;;1054620;28;3847;-64
2023/01/09 03:14:56;;;;;;;;;;;;;;;;;;1056155;28;1609;-60
2023/01/09 03:15:29;;;;;;;;;;;;;;;;;;1052129;27;3834;-60
2023/01/09 03:16:00;;;;;;;;;;;;;;;;;;1053977;28;2415;-61
2023/01/09 03:16:32;;;;;;;;;;;;;;;;;;1053462;28;4194;-63
2023/01/09 03:17:05;;;;;;;;;;;;;;;;;;1054833;28;1844;-63
2023/01/09 03:17:44;;;;;;;;;;;;;;;;;;1053135;28;3989;-63
2023/01/09 03:18:15;;;;;;;;;;;;;;;;;;1052060;28;4023;-60
2023/01/09 03:18:46;;;;;;;;;;;;;;;;;;1056639;28;1660;-61
2023/01/09 03:19:17;;;;;;;;;;;;;;;;;;1054641;28;3786;-60
2023/01/09 03:19:49;;;;;;;;;;;;;;;;;;1053509;28;2981;-60
2023/01/09 03:20:21;;;;;;;;;;;;;;;;;;1052211;28;4186;-60
2023/01/09 03:20:52;;;;;;;;;;;;;;;;;;1054767;28;1817;-63
2023/01/09 03:21:30;;;;;;;;;;;;;;;;;;1051838;28;3971;-64
2023/01/09 03:22:00;;;;;;;;;;;;;;;;;;1055461;28;2240;-61
2023/01/09 03:22:31;;;;;;;;;;;;;;;;;;1053526;28;5180;-61
2023/01/09 03:23:02;;;;;;;;;;;;;;;;;;1053142;28;2122;-61
2023/01/09 03:23:49;;;;;;;;;;;;;;;;;;1051937;28;4199;-61
2023/01/09 03:24:20;;;;;;;;;;;;;;;;;;1051420;28;3946;-61
2023/01/09 03:24:50;;;;;;;;;;;;;;;;;;1053520;28;2679;-61
2023/01/09 03:25:20;;;;;;;;;;;;;;;;;;1054551;28;4107;-60
2023/01/09 03:25:51;;;;;;;;;;;;;;;;;;1052433;27;2432;-63
2023/01/09 03:26:21;;;;;;;;;;;;;;;;;;1052157;28;4086;-63
2023/01/09 03:26:53;;;;;;;;;;;;;;;;;;1052435;28;2081;-62
2023/01/09 03:27:24;;;;;;;;;;;;;;;;;;1053313;28;3910;-61
2023/01/09 03:27:56;;;;;;;;;;;;;;;;;;1053015;28;2236;-61
2023/01/09 03:28:27;;;;;;;;;;;;;;;;;;1052932;28;3910;-61
2023/01/09 03:28:58;;;;;;;;;;;;;;;;;;1055273;27;2344;-62
2023/01/09 03:29:28;;;;;;;;;;;;;;;;;;1053999;28;3956;-60
2023/01/09 03:29:58;;;;;;;;;;;;;;;;;;1053138;28;1746;-62
2023/01/09 03:30:29;;;;;;;;;;;;;;;;;;1051955;27;3762;-64
2023/01/09 03:31:00;;;;;;;;;;;;;;;;;;1054390;28;2099;-61
2023/01/09 03:31:30;;;;;;;;;;;;;;;;;;1053713;28;4331;-63
2023/01/09 03:32:00;;;;;;;;;;;;;;;;;;1053263;28;1453;-63
2023/01/09 03:32:31;;;;;;;;;;;;;;;;;;1054754;28;4113;-63
2023/01/09 03:33:01;;;;;;;;;;;;;;;;;;1052424;28;2797;-61
2023/01/09 03:33:31;;;;;;;;;;;;;;;;;;1054670;28;4048;-62
2023/01/09 03:34:02;;;;;;;;;;;;;;;;;;1052987;28;2067;-60
2023/01/09 03:34:32;;;;;;;;;;;;;;;;;;1054578;28;3971;-64
2023/01/09 03:35:02;;;;;;;;;;;;;;;;;;1054810;28;2560;-62
2023/01/09 03:35:33;;;;;;;;;;;;;;;;;;1053197;28;4131;-62
2023/01/09 03:36:04;;;;;;;;;;;;;;;;;;1051916;27;3813;-62
2023/01/09 03:36:34;;;;;;;;;;;;;;;;;;1052847;28;2187;-59
2023/01/09 03:37:04;;;;;;;;;;;;;;;;;;1051672;28;4312;-62
2023/01/09 03:37:34;;;;;;;;;;;;;;;;;;1055316;28;2657;-64
2023/01/09 03:38:05;;;;;;;;;;;;;;;;;;1053374;28;4060;-60
2023/01/09 03:38:35;;;;;;;;;;;;;;;;;;1055741;28;2089;-63
2023/01/09 03:39:05;;;;;;;;;;;;;;;;;;1051686;27;4254;-61
2023/01/09 03:39:49;;;;;;;;;;;;;;;;;;1050895;28;2179;-60
2023/01/09 03:40:26;;;;;;;;;;;;;;;;;;1048464;28;3798;-64
2023/01/09 03:40:56;;;;;;;;;;;;;;;;;;1051299;28;2139;-60
2023/01/09 03:41:26;;;;;;;;;;;;;;;;;;1049178;28;3896;-63
2023/01/09 03:41:57;;;;;;;;;;;;;;;;;;1048742;28;2306;-62
2023/01/09 03:42:27;;;;;;;;;;;;;;;;;;1049200;28;4440;-60
2023/01/09 03:42:57;;;;;;;;;;;;;;;;;;1048643;28;2612;-63
2023/01/09 03:43:28;;;;;;;;;;;;;;;;;;1047483;28;4011;-64
2023/01/09 03:43:58;;;;;;;;;;;;;;;;;;1049949;28;1806;-62
2023/01/09 03:44:28;;;;;;;;;;;;;;;;;;1048901;28;3950;-60
2023/01/09 03:44:58;;;;;;;;;;;;;;;;;;1047659;28;2462;-61
2023/01/09 03:45:29;;;;;;;;;;;;;;;;;;1048893;28;6875;-61
2023/01/09 03:45:59;;;;;;;;;;;;;;;;;;1050574;28;1986;-63
2023/01/09 03:46:29;;;;;;;;;;;;;;;;;;1048560;28;3860;-64
2023/01/09 03:46:59;;;;;;;;;;;;;;;;;;1051798;28;2830;-64
2023/01/09 03:47:30;;;;;;;;;;;;;;;;;;1050927;28;3935;-62
2023/01/09 03:48:00;;;;;;;;;;;;;;;;;;1050778;28;1739;-61
2023/01/09 03:48:30;;;;;;;;;;;;;;;;;;1048542;28;4052;-63
2023/01/09 03:49:01;;;;;;;;;;;;;;;;;;1047750;28;2249;-64
2023/01/09 03:49:31;;;;;;;;;;;;;;;;;;1051821;28;3940;-64
2023/01/09 03:50:02;;;;;;;;;;;;;;;;;;1051609;28;1988;-61
2023/01/09 03:50:32;;;;;;;;;;;;;;;;;;1047575;28;3834;-64
2023/01/09 03:51:02;;;;;;;;;;;;;;;;;;1048451;28;1969;-64
2023/01/09 03:51:33;;;;;;;;;;;;;;;;;;1049438;28;3977;-63
2023/01/09 03:52:03;;;;;;;;;;;;;;;;;;1048916;28;2362;-63
2023/01/09 03:52:34;;;;;;;;;;;;;;;;;;1047454;28;3863;-60
2023/01/09 03:53:05;;;;;;;;;;;;;;;;;;1048470;28;4140;-65
2023/01/09 03:53:35;;;;;;;;;;;;;;;;;;1047195;28;2618;-62
2023/01/09 03:54:05;;;;;;;;;;;;;;;;;;1051125;28;4226;-64
2023/01/09 03:54:35;;;;;;;;;;;;;;;;;;1051686;28;1727;-62